Time;durP1;ratioP1;P1;durP2;ratioP2;P2;SDS_P1;SDS_P2;PMS_P1;PMS_P2;Temp;Humidity;BMP_temperature;BMP_pressure;BME280_temperature;BME280_humidity;BME280_pressure;Samples;Min_cycle;Max_cycle;Signal;HPM_P1;HPM_P2
2023/04/16 00:01:44;;;;;;;1999.90;999.90;;;21.40;99.90;;;;;;5052476;28;20055;-68
2023/04/16 00:04:11;;;;;;;1999.90;999.90;;;21.50;99.90;;;;;;5052884;28;20402;-68
2023/04/16 00:06:39;;;;;;;1999.90;999.90;;;21.60;99.90;;;;;;5051933;28;20029;-69
2023/04/16 00:09:06;;;;;;;1999.90;999.90;;;21.70;99.90;;;;;;5041146;28;20611;-68
2023/04/16 00:11:33;;;;;;;1999.90;999.90;;;21.90;99.90;;;;;;5054575;28;20040;-68
2023/04/16 00:14:01;;;;;;;1999.90;999.90;;;22.00;99.90;;;;;;5049041;28;20017;-69
2023/04/16 00:16:28;;;;;;;1999.90;999.90;;;22.20;99.90;;;;;;5048251;28;20028;-68
2023/04/16 00:18:56;;;;;;;1999.90;999.90;;;22.60;99.90;;;;;;5046425;28;20553;-68
2023/04/16 00:21:23;;;;;;;1999.90;999.90;;;23.80;99.90;;;;;;5037640;28;20084;-67
2023/04/16 00:23:50;;;;;;;1999.90;999.90;;;25.10;99.90;;;;;;5043461;28;20041;-69
2023/04/16 00:26:18;;;;;;;1999.90;999.90;;;26.40;98.50;;;;;;5049302;28;20033;-68
2023/04/16 00:28:45;;;;;;;1999.90;999.90;;;26.90;96.10;;;;;;5042154;28;20480;-68
2023/04/16 00:31:12;;;;;;;1999.90;999.90;;;26.40;95.60;;;;;;5054913;28;20198;-68
2023/04/16 00:33:40;;;;;;;1999.90;999.90;;;26.30;96.70;;;;;;5041255;28;20071;-68
2023/04/16 00:36:07;;;;;;;1999.90;999.90;;;26.00;96.10;;;;;;5049028;28;20060;-68
2023/04/16 00:38:34;;;;;;;1999.90;999.90;;;25.60;96.70;;;;;;5046743;28;20235;-69
2023/04/16 00:41:01;;;;;;;1999.90;999.90;;;25.30;97.00;;;;;;5051728;28;20124;-69
2023/04/16 00:43:30;;;;;;;1999.90;999.90;;;25.10;97.10;;;;;;5049740;28;20033;-69
2023/04/16 00:45:58;;;;;;;1999.90;999.90;;;25.00;97.80;;;;;;5047109;28;20033;-68
2023/04/16 00:48:26;;;;;;;1999.90;999.90;;;24.80;97.50;;;;;;5042821;28;20062;-69
2023/04/16 00:50:54;;;;;;;1999.90;999.90;;;24.50;98.30;;;;;;5048963;28;20041;-68
2023/04/16 00:53:22;;;;;;;1999.90;999.90;;;24.20;98.00;;;;;;5049865;28;20029;-69
2023/04/16 00:55:49;;;;;;;1999.90;999.90;;;24.00;98.70;;;;;;5047045;28;20033;-69
2023/04/16 00:58:17;;;;;;;1999.90;999.90;;;23.90;98.40;;;;;;5051066;28;20025;-68
2023/04/16 01:00:45;;;;;;;1999.90;999.90;;;23.80;99.50;;;;;;5051201;28;20039;-68
2023/04/16 01:03:12;;;;;;;1999.90;999.90;;;23.80;99.40;;;;;;5050185;28;20037;-68
2023/04/16 01:05:40;;;;;;;1999.90;999.90;;;23.80;99.40;;;;;;5045673;28;20086;-69
2023/04/16 01:08:14;;;;;;;1999.90;999.90;;;23.90;99.30;;;;;;5048960;28;20499;-70
2023/04/16 01:10:41;;;;;;;1999.90;999.90;;;24.00;99.20;;;;;;5062546;28;20032;-69
2023/04/16 01:13:08;;;;;;;1999.90;999.90;;;24.10;98.90;;;;;;5068392;28;20554;-70
2023/04/16 01:15:36;;;;;;;1999.90;999.90;;;24.20;98.90;;;;;;5046005;28;20388;-69
2023/04/16 01:18:13;;;;;;;1999.90;999.90;;;24.40;98.80;;;;;;5053955;28;20036;-70
2023/04/16 01:20:40;;;;;;;1999.90;999.90;;;24.60;98.70;;;;;;5048058;28;20029;-69
2023/04/16 01:23:07;;;;;;;1999.90;999.90;;;24.90;98.70;;;;;;5053115;28;20099;-70
2023/04/16 01:25:35;;;;;;;1999.90;999.90;;;25.00;97.70;;;;;;5046494;28;20033;-70
2023/04/16 01:28:02;;;;;;;1999.90;999.90;;;25.20;98.00;;;;;;5055010;28;20022;-69
2023/04/16 01:30:29;;;;;;;1999.90;999.90;;;25.40;98.00;;;;;;5059300;28;20065;-69
2023/04/16 01:32:57;;;;;;;1999.90;999.90;;;25.30;98.20;;;;;;5055218;28;20376;-70
2023/04/16 01:35:25;;;;;;;1999.90;999.90;;;25.30;98.40;;;;;;5053453;28;20028;-69
2023/04/16 01:37:53;;;;;;;1999.90;999.90;;;25.40;98.40;;;;;;5055010;28;20033;-69
2023/04/16 01:40:20;;;;;;;1999.90;999.90;;;25.40;98.50;;;;;;5056614;28;20440;-68
2023/04/16 01:42:48;;;;;;;1999.90;999.90;;;25.50;98.00;;;;;;5058539;28;20027;-69
2023/04/16 01:45:15;;;;;;;1999.90;999.90;;;25.50;97.80;;;;;;5055354;28;20032;-69
2023/04/16 01:47:43;;;;;;;1999.90;999.90;;;25.60;97.90;;;;;;5046569;28;20032;-69
2023/04/16 01:50:10;;;;;;;1999.90;999.90;;;25.70;98.00;;;;;;5050546;28;20025;-69
2023/04/16 01:52:38;;;;;;;1999.90;999.90;;;25.70;97.70;;;;;;5055532;28;20059;-69
2023/04/16 01:55:06;;;;;;;1999.90;999.90;;;25.80;97.50;;;;;;5054644;28;20103;-68
2023/04/16 01:57:33;;;;;;;1999.90;999.90;;;25.70;97.20;;;;;;5058858;28;20040;-69
2023/04/16 02:00:00;;;;;;;1999.90;999.90;;;25.90;97.20;;;;;;5052212;28;20515;-69
2023/04/16 02:02:28;;;;;;;1999.90;999.90;;;26.10;97.00;;;;;;5056929;28;20032;-71
2023/04/16 02:04:56;;;;;;;1999.90;999.90;;;26.20;96.50;;;;;;5059308;28;20085;-68
2023/04/16 02:07:26;;;;;;;1999.90;999.90;;;26.10;96.60;;;;;;5043614;28;20854;-69
2023/04/16 02:09:53;;;;;;;1999.90;999.90;;;26.20;97.00;;;;;;5048245;28;20092;-69
2023/04/16 02:12:21;;;;;;;1999.90;999.90;;;26.20;96.80;;;;;;5047551;28;20037;-68
2023/04/16 02:14:48;;;;;;;1999.90;999.90;;;26.40;97.20;;;;;;5054285;28;20145;-70
2023/04/16 02:17:16;;;;;;;1999.90;999.90;;;26.90;96.90;;;;;;5062156;28;20060;-69
2023/04/16 02:19:43;;;;;;;1999.90;999.90;;;27.20;96.50;;;;;;5046161;28;20025;-70
2023/04/16 02:22:10;;;;;;;1999.90;999.90;;;27.30;96.40;;;;;;5055493;28;20048;-67
2023/04/16 02:24:37;;;;;;;1999.90;999.90;;;27.20;96.20;;;;;;5046568;28;20384;-66
2023/04/16 02:27:05;;;;;;;1999.90;999.90;;;27.10;96.00;;;;;;5047913;28;20060;-67
2023/04/16 02:29:32;;;;;;;1999.90;999.90;;;26.90;96.30;;;;;;5043307;28;20112;-69
2023/04/16 02:31:59;;;;;;;1999.90;999.90;;;26.70;96.00;;;;;;5049064;28;20036;-67
2023/04/16 02:34:27;;;;;;;1999.90;999.90;;;26.50;96.30;;;;;;5046723;28;20108;-69
2023/04/16 02:36:54;;;;;;;1999.90;999.90;;;26.50;96.60;;;;;;5049401;28;20494;-69
2023/04/16 02:39:21;;;;;;;1999.90;999.90;;;26.40;96.10;;;;;;5047716;28;20021;-71
2023/04/16 02:41:49;;;;;;;1999.90;999.90;;;26.30;97.20;;;;;;5053760;28;20383;-70
2023/04/16 02:44:16;;;;;;;1999.90;999.90;;;26.20;97.50;;;;;;5047706;28;20036;-69
2023/04/16 02:46:43;;;;;;;1999.90;999.90;;;26.00;97.60;;;;;;5047787;28;20025;-69
2023/04/16 02:49:10;;;;;;;1999.90;999.90;;;25.90;97.50;;;;;;5049255;28;20063;-69
2023/04/16 02:51:38;;;;;;;1999.90;999.90;;;25.80;96.80;;;;;;5052291;28;20041;-70
2023/04/16 02:54:05;;;;;;;1999.90;999.90;;;25.70;95.00;;;;;;5046833;28;20048;-68
2023/04/16 02:56:32;;;;;;;1999.90;999.90;;;25.70;94.50;;;;;;5051123;28;20070;-69
2023/04/16 02:59:00;;;;;;;1999.90;999.90;;;25.80;93.90;;;;;;5051187;28;20033;-69
2023/04/16 03:01:27;;;;;;;1999.90;999.90;;;25.80;93.20;;;;;;5047883;28;20029;-70
2023/04/16 03:03:55;;;;;;;1999.90;999.90;;;25.70;93.10;;;;;;5049545;28;20031;-69
2023/04/16 03:06:22;;;;;;;1999.90;999.90;;;25.70;93.20;;;;;;5054027;28;20592;-71
2023/04/16 03:08:50;;;;;;;1999.90;999.90;;;26.00;92.70;;;;;;5048932;28;20056;-69
2023/04/16 03:11:18;;;;;;;1999.90;999.90;;;26.40;92.60;;;;;;5059318;28;20037;-68
2023/04/16 03:13:45;;;;;;;1999.90;999.90;;;26.80;91.70;;;;;;5045758;28;20029;-68
2023/04/16 03:16:13;;;;;;;1999.90;999.90;;;27.10;92.20;;;;;;5054158;28;20024;-69
2023/04/16 03:18:40;;;;;;;1999.90;999.90;;;27.40;91.50;;;;;;5046544;28;20509;-69
2023/04/16 03:21:07;;;;;;;1999.90;999.90;;;27.20;92.00;;;;;;5055393;28;20056;-70
2023/04/16 03:23:35;;;;;;;1999.90;999.90;;;26.80;92.00;;;;;;5055813;28;20791;-70
2023/04/16 03:26:02;;;;;;;1999.90;999.90;;;26.40;92.20;;;;;;5043669;28;22006;-70
2023/04/16 03:28:30;;;;;;;1999.90;999.90;;;26.70;92.50;;;;;;5050805;28;20028;-72
2023/04/16 03:30:57;;;;;;;1999.90;999.90;;;27.10;92.20;;;;;;5056567;28;20050;-69
2023/04/16 03:33:25;;;;;;;1999.90;999.90;;;27.40;92.10;;;;;;5054427;28;20367;-70
2023/04/16 03:35:56;;;;;;;1999.90;999.90;;;27.50;91.70;;;;;;5052542;28;20039;-70
2023/04/16 03:38:25;;;;;;;1999.90;999.90;;;27.70;91.70;;;;;;5052812;28;20375;-70
2023/04/16 03:40:52;;;;;;;1999.90;999.90;;;27.80;91.80;;;;;;5056838;28;20383;-71
2023/04/16 03:43:20;;;;;;;1999.90;999.90;;;27.80;91.70;;;;;;5059847;28;20031;-70
2023/04/16 03:45:49;;;;;;;1999.90;999.90;;;27.90;91.20;;;;;;5047743;28;20025;-70
2023/04/16 03:48:16;;;;;;;1999.90;999.90;;;27.70;90.60;;;;;;5053023;28;20029;-69
2023/04/16 03:50:47;;;;;;;1999.90;999.90;;;27.60;91.10;;;;;;5058144;28;20032;-71
2023/04/16 03:53:14;;;;;;;1999.90;999.90;;;27.50;90.40;;;;;;5050811;28;20505;-69
2023/04/16 03:55:42;;;;;;;1999.90;999.90;;;26.70;90.60;;;;;;5058485;28;20036;-69
2023/04/16 03:58:09;;;;;;;1999.90;999.90;;;26.30;91.00;;;;;;5054605;28;20048;-72
2023/04/16 04:00:37;;;;;;;1999.90;999.90;;;26.20;87.30;;;;;;5057793;28;20043;-71
2023/04/16 04:03:04;;;;;;;1999.90;999.90;;;26.30;87.10;;;;;;5054033;28;20028;-70
2023/04/16 04:05:35;;;;;;;1999.90;999.90;;;26.50;83.50;;;;;;5048071;28;20029;-71
2023/04/16 04:08:02;;;;;;;1999.90;999.90;;;26.30;82.80;;;;;;5053069;28;20102;-70
2023/04/16 04:10:32;;;;;;;1999.90;999.90;;;26.10;81.80;;;;;;5047889;28;20064;-70
2023/04/16 04:13:00;;;;;;;1999.90;999.90;;;26.20;80.10;;;;;;5057216;28;20041;-70
2023/04/16 04:15:28;;;;;;;1999.90;999.90;;;26.40;79.70;;;;;;5048046;28;20537;-70
2023/04/16 04:17:55;;;;;;;1999.90;999.90;;;26.40;79.50;;;;;;5061478;28;20048;-71
2023/04/16 04:20:23;;;;;;;1999.90;999.90;;;26.40;80.20;;;;;;5052437;28;20129;-72
2023/04/16 04:22:50;;;;;;;1999.90;999.90;;;26.40;78.40;;;;;;5054635;28;20682;-70
2023/04/16 04:25:18;;;;;;;1999.90;999.90;;;26.40;78.60;;;;;;5050019;28;20025;-71
2023/04/16 04:27:45;;;;;;;1999.90;999.90;;;26.50;77.50;;;;;;5051627;28;20033;-71
2023/04/16 04:30:13;;;;;;;1999.90;999.90;;;26.50;78.80;;;;;;5049676;28;20025;-70
2023/04/16 04:32:40;;;;;;;1999.90;999.90;;;26.60;80.10;;;;;;5052138;28;20068;-72
2023/04/16 04:35:08;;;;;;;1999.90;999.90;;;26.70;79.60;;;;;;5051735;28;20025;-72
2023/04/16 04:37:35;;;;;;;1999.90;999.90;;;26.80;78.10;;;;;;5050896;28;20036;-70
2023/04/16 04:40:04;;;;;;;1999.90;999.90;;;26.80;79.30;;;;;;5047686;28;20028;-69
2023/04/16 04:42:33;;;;;;;1999.90;999.90;;;26.80;79.30;;;;;;5052127;28;20464;-71
2023/04/16 04:45:00;;;;;;;1999.90;999.90;;;26.90;79.20;;;;;;5046003;28;20079;-72
2023/04/16 04:47:27;;;;;;;1999.90;999.90;;;26.70;77.80;;;;;;5051462;28;20034;-71
2023/04/16 04:49:55;;;;;;;1999.90;999.90;;;26.70;77.90;;;;;;5058772;28;20036;-70
2023/04/16 04:52:22;;;;;;;1999.90;999.90;;;26.70;78.80;;;;;;5045839;28;20032;-70
2023/04/16 04:54:49;;;;;;;1999.90;999.90;;;26.90;79.70;;;;;;5050585;28;20680;-70
2023/04/16 04:57:17;;;;;;;1999.90;999.90;;;26.90;78.90;;;;;;5050808;28;20037;-70
2023/04/16 04:59:44;;;;;;;1999.90;999.90;;;26.90;77.20;;;;;;5054683;28;20023;-71
2023/04/16 05:02:11;;;;;;;1999.90;999.90;;;26.80;77.90;;;;;;5050819;28;20362;-71
2023/04/16 05:04:39;;;;;;;1999.90;999.90;;;26.80;77.30;;;;;;5050696;28;20025;-70
2023/04/16 05:07:06;;;;;;;1999.90;999.90;;;26.70;77.10;;;;;;5051059;28;20053;-70
2023/04/16 05:09:34;;;;;;;1999.90;999.90;;;26.50;77.40;;;;;;5054463;28;20048;-71
2023/04/16 05:12:02;;;;;;;1999.90;999.90;;;26.30;78.40;;;;;;5051029;28;20036;-71
2023/04/16 05:14:29;;;;;;;1999.90;999.90;;;26.20;78.90;;;;;;5055764;28;20143;-71
2023/04/16 05:16:56;;;;;;;1999.90;999.90;;;25.90;78.40;;;;;;5058788;28;20101;-72
2023/04/16 05:19:24;;;;;;;1999.90;999.90;;;25.90;79.20;;;;;;5050795;28;20070;-71
2023/04/16 05:21:51;;;;;;;1999.90;999.90;;;25.80;79.70;;;;;;5043828;28;20032;-72
2023/04/16 05:24:19;;;;;;;1999.90;999.90;;;25.70;80.20;;;;;;5053408;28;20024;-70
2023/04/16 05:26:46;;;;;;;1999.90;999.90;;;25.70;80.00;;;;;;5056151;28;20116;-70
2023/04/16 05:29:13;;;;;;;1999.90;999.90;;;25.60;80.40;;;;;;5056244;28;20104;-70
2023/04/16 05:31:41;;;;;;;1999.90;999.90;;;25.50;80.10;;;;;;5056317;28;20051;-73
2023/04/16 05:34:08;;;;;;;1999.90;999.90;;;25.40;79.60;;;;;;5050591;28;20021;-71
2023/04/16 05:36:36;;;;;;;1999.90;999.90;;;25.30;80.10;;;;;;5054705;28;20040;-70
2023/04/16 05:39:03;;;;;;;1999.90;999.90;;;25.20;80.80;;;;;;5052515;28;20070;-70
2023/04/16 05:41:30;;;;;;;1999.90;999.90;;;25.20;81.00;;;;;;5049543;28;20045;-72
2023/04/16 05:43:58;;;;;;;1999.90;999.90;;;25.10;80.70;;;;;;5050545;28;20053;-71
2023/04/16 05:46:25;;;;;;;1999.90;999.90;;;25.10;81.60;;;;;;5052970;28;20067;-71
2023/04/16 05:48:52;;;;;;;1999.90;999.90;;;25.10;80.90;;;;;;5039795;28;20134;-69
2023/04/16 05:51:21;;;;;;;1999.90;999.90;;;25.00;80.90;;;;;;5051029;28;20068;-72
2023/04/16 05:53:49;;;;;;;1999.90;999.90;;;25.00;81.20;;;;;;5038746;28;20032;-69
2023/04/16 05:56:16;;;;;;;1999.90;999.90;;;25.00;81.90;;;;;;5050588;28;20114;-70
2023/04/16 05:58:43;;;;;;;1999.90;999.90;;;25.00;81.70;;;;;;5043906;28;20057;-72
2023/04/16 06:01:11;;;;;;;1999.90;999.90;;;25.00;82.10;;;;;;5042762;28;20491;-70
2023/04/16 06:03:38;;;;;;;1999.90;999.90;;;25.00;82.60;;;;;;5033718;28;20187;-71
2023/04/16 06:06:07;;;;;;;1999.90;999.90;;;24.90;82.10;;;;;;5046369;28;20082;-70
2023/04/16 06:08:35;;;;;;;1999.90;999.90;;;24.90;82.00;;;;;;5036972;28;20052;-71
2023/04/16 06:11:03;;;;;;;1999.90;999.90;;;24.80;81.70;;;;;;5048937;28;20131;-71
2023/04/16 06:13:30;;;;;;;1999.90;999.90;;;24.70;82.00;;;;;;5045777;28;20648;-70
2023/04/16 06:15:58;;;;;;;1999.90;999.90;;;24.70;81.90;;;;;;5050721;28;20115;-69
2023/04/16 06:18:26;;;;;;;1999.90;999.90;;;24.60;81.50;;;;;;5042461;28;20044;-70
2023/04/16 06:20:54;;;;;;;1999.90;999.90;;;24.60;81.10;;;;;;5048024;28;20027;-70
2023/04/16 06:23:22;;;;;;;1999.90;999.90;;;24.60;82.50;;;;;;5038627;28;20535;-70
2023/04/16 06:25:49;;;;;;;1999.90;999.90;;;24.60;82.70;;;;;;5047770;28;20029;-69
2023/04/16 06:28:16;;;;;;;1999.90;999.90;;;24.60;81.10;;;;;;5045243;28;20033;-70
2023/04/16 06:30:43;;;;;;;1999.90;999.90;;;24.50;80.50;;;;;;5043033;28;20116;-70
2023/04/16 06:33:11;;;;;;;1999.90;999.90;;;24.30;79.80;;;;;;5041681;28;20064;-69
2023/04/16 06:35:38;;;;;;;1999.90;999.90;;;24.10;80.50;;;;;;5040995;28;20040;-70
2023/04/16 06:38:06;;;;;;;1999.90;999.90;;;23.90;80.90;;;;;;5057157;28;20020;-70
2023/04/16 06:40:33;;;;;;;1999.90;999.90;;;23.70;81.70;;;;;;5053827;28;20455;-71
2023/04/16 06:43:01;;;;;;;1999.90;999.90;;;23.60;82.00;;;;;;5044716;28;20067;-69
2023/04/16 06:45:29;;;;;;;1999.90;999.90;;;23.40;81.70;;;;;;5051844;28;20056;-71
2023/04/16 06:47:57;;;;;;;1999.90;999.90;;;23.30;82.40;;;;;;5056351;28;20039;-71
2023/04/16 06:50:27;;;;;;;1999.90;999.90;;;23.20;82.50;;;;;;5055337;28;20032;-71
2023/04/16 06:52:57;;;;;;;1999.90;999.90;;;23.10;82.10;;;;;;5058377;28;20554;-71
2023/04/16 06:55:25;;;;;;;1999.90;999.90;;;23.00;83.00;;;;;;5051328;28;20035;-70
2023/04/16 06:57:52;;;;;;;1999.90;999.90;;;22.90;81.70;;;;;;5051454;28;20367;-70
2023/04/16 07:00:19;;;;;;;1999.90;999.90;;;22.90;81.20;;;;;;5054517;28;20055;-71
2023/04/16 07:02:47;;;;;;;1999.90;999.90;;;22.70;81.50;;;;;;5052735;28;20423;-71
2023/04/16 07:05:14;;;;;;;1999.90;999.90;;;22.60;81.60;;;;;;5050735;28;20028;-72
2023/04/16 07:07:42;;;;;;;1999.90;999.90;;;22.40;81.70;;;;;;5053017;28;20219;-71
2023/04/16 07:10:11;;;;;;;1999.90;999.90;;;22.30;81.80;;;;;;5049704;28;20047;-70
2023/04/16 07:12:41;;;;;;;1999.90;999.90;;;22.20;82.20;;;;;;5043500;28;20045;-70
2023/04/16 07:15:09;;;;;;;1999.90;999.90;;;22.00;82.60;;;;;;5041405;28;20146;-70
2023/04/16 07:17:36;;;;;;;1999.90;999.90;;;21.90;83.10;;;;;;5039182;28;20021;-70
2023/04/16 07:20:05;;;;;;;1999.90;999.90;;;21.70;84.20;;;;;;5049718;28;20095;-71
2023/04/16 07:22:33;;;;;;;1999.90;999.90;;;21.50;85.20;;;;;;5054728;28;20032;-70
2023/04/16 07:25:00;;;;;;;1999.90;999.90;;;21.30;85.90;;;;;;5050916;28;20033;-70
2023/04/16 07:27:27;;;;;;;1999.90;999.90;;;21.20;86.30;;;;;;5045126;28;20033;-70
2023/04/16 07:29:55;;;;;;;1999.90;999.90;;;21.00;86.50;;;;;;5045676;28;20017;-71
2023/04/16 07:32:23;;;;;;;1999.90;999.90;;;20.90;87.10;;;;;;5056917;28;20056;-70
2023/04/16 07:34:50;;;;;;;1999.90;999.90;;;20.70;87.20;;;;;;5046833;28;20111;-71
2023/04/16 07:37:18;;;;;;;1999.90;999.90;;;20.70;87.00;;;;;;5047516;28;20069;-70
2023/04/16 07:39:46;;;;;;;1999.90;999.90;;;20.60;86.90;;;;;;5054829;28;20064;-70
2023/04/16 07:42:13;;;;;;;1999.90;999.90;;;20.50;86.40;;;;;;5053639;28;20036;-70
2023/04/16 07:44:40;;;;;;;1999.90;999.90;;;20.40;86.70;;;;;;5038698;28;20024;-70
2023/04/16 07:47:08;;;;;;;1999.90;999.90;;;20.40;86.70;;;;;;5047496;28;20439;-70
2023/04/16 07:49:35;;;;;;;1999.90;999.90;;;20.20;87.10;;;;;;5046409;28;20121;-70
2023/04/16 07:52:02;;;;;;;1999.90;999.90;;;20.20;87.10;;;;;;5046901;28;20140;-71
2023/04/16 07:54:30;;;;;;;1999.90;999.90;;;20.10;87.70;;;;;;5048963;28;20118;-70
2023/04/16 07:56:57;;;;;;;1999.90;999.90;;;19.90;87.80;;;;;;5049285;28;20040;-71
2023/04/16 07:59:24;;;;;;;1999.90;999.90;;;19.80;88.10;;;;;;5047699;28;20013;-70
2023/04/16 08:01:55;;;;;;;1999.90;999.90;;;19.70;88.60;;;;;;5049783;28;20060;-71
2023/04/16 08:04:23;;;;;;;1999.90;999.90;;;19.60;87.30;;;;;;5054468;28;20507;-69
2023/04/16 08:06:51;;;;;;;1999.90;999.90;;;19.50;87.40;;;;;;5052269;28;20060;-70
2023/04/16 08:09:20;;;;;;;1999.90;999.90;;;19.50;87.40;;;;;;5038221;28;20049;-70
2023/04/16 08:11:48;;;;;;;1999.90;999.90;;;19.40;87.50;;;;;;5057206;28;20037;-70
2023/04/16 08:14:18;;;;;;;1999.90;999.90;;;19.30;87.60;;;;;;5043785;28;21068;-70
2023/04/16 08:16:46;;;;;;;1999.90;999.90;;;19.20;87.70;;;;;;5051599;28;20037;-70
2023/04/16 08:19:13;;;;;;;1999.90;999.90;;;19.20;87.70;;;;;;5045258;28;20112;-69
2023/04/16 08:21:40;;;;;;;1999.90;999.90;;;19.10;88.40;;;;;;5049179;28;20029;-70
2023/04/16 08:24:08;;;;;;;1999.90;999.90;;;19.00;88.60;;;;;;5052411;28;20020;-70
2023/04/16 08:26:35;;;;;;;1999.90;999.90;;;18.90;88.70;;;;;;5051338;28;20029;-69
2023/04/16 08:29:03;;;;;;;1999.90;999.90;;;18.80;89.00;;;;;;5048396;28;20025;-71
2023/04/16 08:31:30;;;;;;;1999.90;999.90;;;18.70;89.20;;;;;;5043358;28;20767;-71
2023/04/16 08:33:58;;;;;;;1999.90;999.90;;;18.80;92.50;;;;;;5041260;28;20040;-71
2023/04/16 08:36:26;;;;;;;1999.90;999.90;;;18.90;91.00;;;;;;5056312;28;20029;-71
2023/04/16 08:38:53;;;;;;;1999.90;999.90;;;19.00;90.10;;;;;;5051715;28;20441;-71
2023/04/16 08:41:23;;;;;;;1999.90;999.90;;;19.00;90.30;;;;;;5035674;28;20029;-71
2023/04/16 08:43:52;;;;;;;1999.90;999.90;;;19.40;93.20;;;;;;5046810;28;20128;-71
2023/04/16 08:46:25;;;;;;;1999.90;999.90;;;20.10;90.30;;;;;;5053757;28;20044;-71
2023/04/16 08:48:55;;;;;;;1999.90;999.90;;;20.50;90.20;;;;;;5034722;28;20032;-71
2023/04/16 08:51:26;;;;;;;1999.90;999.90;;;20.50;89.10;;;;;;5053139;28;20091;-73
2023/04/16 08:53:59;;;;;;;1999.90;999.90;;;20.70;88.80;;;;;;5043304;28;20594;-70
2023/04/16 08:56:27;;;;;;;1999.90;999.90;;;20.80;87.90;;;;;;5058325;28;20033;-70
2023/04/16 08:58:55;;;;;;;1999.90;999.90;;;20.80;88.60;;;;;;5051239;28;20162;-69
2023/04/16 09:01:24;;;;;;;1999.90;999.90;;;20.70;86.20;;;;;;5046585;28;20041;-72
2023/04/16 09:03:51;;;;;;;1999.90;999.90;;;20.50;90.90;;;;;;5051468;28;20045;-70
2023/04/16 09:06:19;;;;;;;1999.90;999.90;;;20.60;85.60;;;;;;5038180;28;20488;-71
2023/04/16 09:08:48;;;;;;;1999.90;999.90;;;20.60;87.30;;;;;;5043898;28;20064;-70
2023/04/16 09:11:18;;;;;;;1999.90;999.90;;;20.50;86.00;;;;;;5044697;28;20037;-70
2023/04/16 09:13:46;;;;;;;1999.90;999.90;;;20.20;86.10;;;;;;5049898;28;20392;-70
2023/04/16 09:16:14;;;;;;;1999.90;999.90;;;19.90;86.40;;;;;;5051718;28;20158;-71
2023/04/16 09:18:42;;;;;;;1999.90;999.90;;;19.60;87.30;;;;;;5047013;28;20028;-69
2023/04/16 09:21:13;;;;;;;1999.90;999.90;;;19.40;87.90;;;;;;5047258;28;20105;-70
2023/04/16 09:23:41;;;;;;;1999.90;999.90;;;19.30;88.30;;;;;;5038439;28;20056;-70
2023/04/16 09:26:08;;;;;;;1999.90;999.90;;;19.10;88.50;;;;;;5036784;28;22154;-70
2023/04/16 09:28:51;;;;;;;1999.90;999.90;;;18.90;89.10;;;;;;5040131;28;20049;-72
2023/04/16 09:31:19;;;;;;;1999.90;999.90;;;18.80;89.40;;;;;;5046820;28;20044;-70
2023/04/16 09:34:08;;;;;;;1999.90;999.90;;;18.70;90.00;;;;;;5044766;28;20060;-71
2023/04/16 09:36:37;;;;;;;1999.90;999.90;;;18.70;90.10;;;;;;5044065;28;20060;-71
2023/04/16 09:39:04;;;;;;;1999.90;999.90;;;18.60;90.20;;;;;;5042357;28;20025;-71
2023/04/16 09:41:38;;;;;;;1999.90;999.90;;;18.40;90.20;;;;;;5054753;28;20029;-71
2023/04/16 09:44:05;;;;;;;1999.90;999.90;;;18.30;90.30;;;;;;5057297;28;20112;-69
2023/04/16 09:46:40;;;;;;;1999.90;999.90;;;18.20;90.50;;;;;;5053321;28;20033;-70
2023/04/16 09:49:15;;;;;;;1999.90;999.90;;;18.10;90.60;;;;;;5046843;28;20028;-72
2023/04/16 09:51:49;;;;;;;1999.90;999.90;;;18.10;90.80;;;;;;5052922;28;20086;-72
2023/04/16 09:54:19;;;;;;;1999.90;999.90;;;17.90;90.80;;;;;;5044183;28;20292;-70
2023/04/16 09:56:47;;;;;;;1999.90;999.90;;;17.80;91.00;;;;;;5052291;28;20021;-74
2023/04/16 09:59:21;;;;;;;1999.90;999.90;;;17.80;91.10;;;;;;5048524;28;20028;-71
2023/04/16 10:01:49;;;;;;;1999.90;999.90;;;17.80;91.20;;;;;;5052994;28;20476;-71
2023/04/16 10:04:17;;;;;;;1999.90;999.90;;;17.70;91.20;;;;;;5052740;28;20033;-71
2023/04/16 10:06:47;;;;;;;1999.90;999.90;;;17.70;91.40;;;;;;5041390;28;20407;-71
2023/04/16 10:09:14;;;;;;;1999.90;999.90;;;17.60;91.30;;;;;;5045759;28;20752;-70
2023/04/16 10:11:42;;;;;;;1999.90;999.90;;;17.60;91.50;;;;;;5048855;28;20025;-69
2023/04/16 10:14:09;;;;;;;1999.90;999.90;;;17.50;92.30;;;;;;5048165;28;20032;-69
2023/04/16 10:16:39;;;;;;;1999.90;999.90;;;17.50;91.70;;;;;;5053945;28;20025;-69
2023/04/16 10:19:06;;;;;;;1999.90;999.90;;;17.50;91.70;;;;;;5049860;28;20062;-71
2023/04/16 10:21:34;;;;;;;1999.90;999.90;;;17.40;91.90;;;;;;5049513;28;20040;-70
2023/04/16 10:24:02;;;;;;;1999.90;999.90;;;17.40;91.90;;;;;;5045397;28;20056;-70
2023/04/16 10:26:30;;;;;;;1999.90;999.90;;;17.40;92.00;;;;;;5038442;28;20028;-71
2023/04/16 10:28:59;;;;;;;1999.90;999.90;;;17.40;92.10;;;;;;5039645;28;20047;-69
2023/04/16 10:31:27;;;;;;;1999.90;999.90;;;17.40;92.10;;;;;;5059262;28;20045;-72
2023/04/16 10:33:55;;;;;;;1999.90;999.90;;;17.40;92.30;;;;;;5045769;28;20086;-70
2023/04/16 10:36:26;;;;;;;1999.90;999.90;;;17.30;92.30;;;;;;5053418;28;20390;-70
2023/04/16 10:38:57;;;;;;;1999.90;999.90;;;17.20;92.60;;;;;;5050736;28;20117;-71
2023/04/16 10:41:26;;;;;;;1999.90;999.90;;;17.20;92.30;;;;;;5046496;28;20028;-72
2023/04/16 10:44:04;;;;;;;1999.90;999.90;;;17.20;92.60;;;;;;5049811;28;20060;-71
2023/04/16 10:46:41;;;;;;;1999.90;999.90;;;17.20;92.60;;;;;;5049352;28;20095;-72
2023/04/16 10:49:17;;;;;;;1999.90;999.90;;;17.10;92.90;;;;;;5043786;28;20025;-72
2023/04/16 10:51:59;;;;;;;1999.90;999.90;;;17.00;93.40;;;;;;5048920;28;20475;-70
2023/04/16 10:54:28;;;;;;;1999.90;999.90;;;16.90;93.30;;;;;;5041242;28;20016;-70
2023/04/16 10:57:03;;;;;;;1999.90;999.90;;;16.80;93.30;;;;;;5038490;28;20037;-70
2023/04/16 10:59:35;;;;;;;1999.90;999.90;;;16.70;93.80;;;;;;5045773;28;20036;-69
2023/04/16 11:02:15;;;;;;;1999.90;999.90;;;16.60;94.30;;;;;;5054243;28;20721;-71
2023/04/16 11:04:47;;;;;;;1999.90;999.90;;;16.40;94.60;;;;;;5045233;28;20102;-72
2023/04/16 11:07:16;;;;;;;1999.90;999.90;;;16.30;94.70;;;;;;5055516;28;20025;-71
2023/04/16 11:09:50;;;;;;;1999.90;999.90;;;16.20;95.10;;;;;;5047196;28;20052;-71
2023/04/16 11:12:22;;;;;;;1999.90;999.90;;;16.30;94.80;;;;;;5047554;28;20126;-71
2023/04/16 11:15:06;;;;;;;1999.90;999.90;;;16.20;94.90;;;;;;5044398;28;20135;-71
2023/04/16 11:17:41;;;;;;;1999.90;999.90;;;16.10;95.50;;;;;;5044368;28;20081;-69
2023/04/16 11:20:19;;;;;;;1999.90;999.90;;;16.10;95.80;;;;;;5052827;28;20037;-71
2023/04/16 11:22:50;;;;;;;1999.90;999.90;;;16.00;95.90;;;;;;5064170;28;20025;-71
2023/04/16 11:25:25;;;;;;;1999.90;999.90;;;15.90;96.00;;;;;;5048081;28;20112;-71
2023/04/16 11:27:53;;;;;;;1999.90;999.90;;;15.80;96.10;;;;;;5032579;28;20380;-71
2023/04/16 11:30:41;;;;;;;1999.90;999.90;;;15.80;96.40;;;;;;5055440;28;20036;-73
2023/04/16 11:33:10;;;;;;;1999.90;999.90;;;15.80;96.70;;;;;;5048483;28;20427;-73
2023/04/16 11:35:38;;;;;;;1999.90;999.90;;;15.70;96.60;;;;;;5045195;28;20048;-71
2023/04/16 11:38:06;;;;;;;1999.90;999.90;;;15.70;96.90;;;;;;5053397;28;20041;-72
2023/04/16 11:40:34;;;;;;;1999.90;999.90;;;15.60;97.40;;;;;;5046187;28;20020;-72
2023/04/16 11:43:16;;;;;;;1999.90;999.90;;;15.60;97.50;;;;;;5051529;28;20044;-71
2023/04/16 11:46:05;;;;;;;1999.90;999.90;;;15.60;97.60;;;;;;5050872;28;20372;-71
2023/04/16 11:48:54;;;;;;;1999.90;999.90;;;15.50;97.60;;;;;;5047514;28;20027;-71
2023/04/16 11:51:22;;;;;;;1999.90;999.90;;;15.50;97.60;;;;;;5053065;28;20029;-70
2023/04/16 11:53:51;;;;;;;1999.90;999.90;;;15.50;97.60;;;;;;5047217;28;20044;-71
2023/04/16 11:56:29;;;;;;;1999.90;999.90;;;15.50;97.60;;;;;;5050762;28;20032;-71
2023/04/16 11:59:10;;;;;;;1999.90;999.90;;;15.40;97.80;;;;;;5049186;28;20048;-70
2023/04/16 12:01:39;;;;;;;1999.90;999.90;;;15.40;97.80;;;;;;5051450;28;20154;-71
2023/04/16 12:04:07;;;;;;;1999.90;999.90;;;15.40;97.70;;;;;;5047796;28;20024;-70
2023/04/16 12:06:35;;;;;;;1999.90;999.90;;;15.40;98.30;;;;;;5047884;28;20032;-70